sensor_id;sensor_type;location;lat;lon;timestamp;pressure;altitude;pressure_sealevel;temperature;humidity
29371;BME280;16357;52.188;7.838;2023-12-20T00:01:00;100611.16;;;9.45;70.54
29371;BME280;16357;52.188;7.838;2023-12-20T00:03:26;100606.66;;;9.45;70.84
29371;BME280;16357;52.188;7.838;2023-12-20T00:05:53;100606.50;;;9.47;70.89
29371;BME280;16357;52.188;7.838;2023-12-20T00:08:19;100603.81;;;9.47;70.98
29371;BME280;16357;52.188;7.838;2023-12-20T00:10:46;100613.38;;;9.50;71.11
29371;BME280;16357;52.188;7.838;2023-12-20T00:13:12;100616.75;;;9.52;70.79
29371;BME280;16357;52.188;7.838;2023-12-20T00:15:39;100620.13;;;9.54;70.89
29371;BME280;16357;52.188;7.838;2023-12-20T00:18:05;100617.28;;;9.55;71.17
29371;BME280;16357;52.188;7.838;2023-12-20T00:20:32;100605.59;;;9.56;70.72
29371;BME280;16357;52.188;7.838;2023-12-20T00:22:58;100608.28;;;9.56;70.63
29371;BME280;16357;52.188;7.838;2023-12-20T00:25:25;100620.66;;;9.57;70.54
29371;BME280;16357;52.188;7.838;2023-12-20T00:27:52;100615.47;;;9.56;70.29
29371;BME280;16357;52.188;7.838;2023-12-20T00:30:18;100613.63;;;9.56;70.16
29371;BME280;16357;52.188;7.838;2023-12-20T00:32:45;100613.78;;;9.55;70.49
29371;BME280;16357;52.188;7.838;2023-12-20T00:35:15;100618.28;;;9.54;70.55
29371;BME280;16357;52.188;7.838;2023-12-20T00:37:42;100620.13;;;9.54;70.41
29371;BME280;16357;52.188;7.838;2023-12-20T00:40:10;100620.97;;;9.54;70.42
29371;BME280;16357;52.188;7.838;2023-12-20T00:42:37;100616.63;;;9.53;70.03
29371;BME280;16357;52.188;7.838;2023-12-20T00:45:03;100626.63;;;9.51;70.04
29371;BME280;16357;52.188;7.838;2023-12-20T00:47:31;100619.56;;;9.50;70.15
29371;BME280;16357;52.188;7.838;2023-12-20T00:49:57;100619.56;;;9.50;70.33
29371;BME280;16357;52.188;7.838;2023-12-20T00:52:24;100637.66;;;9.48;70.13
29371;BME280;16357;52.188;7.838;2023-12-20T00:54:52;100625.25;;;9.47;70.08
29371;BME280;16357;52.188;7.838;2023-12-20T00:57:18;100615.53;;;9.46;69.98
29371;BME280;16357;52.188;7.838;2023-12-20T00:59:45;100616.81;;;9.42;69.62
29371;BME280;16357;52.188;7.838;2023-12-20T01:02:11;100610.94;;;9.38;69.29
29371;BME280;16357;52.188;7.838;2023-12-20T01:04:38;100610.41;;;9.35;69.00
29371;BME280;16357;52.188;7.838;2023-12-20T01:07:04;100596.63;;;9.30;68.61
29371;BME280;16357;52.188;7.838;2023-12-20T01:09:31;100599.91;;;9.23;68.77
29371;BME280;16357;52.188;7.838;2023-12-20T01:11:57;100595.31;;;9.16;68.76
29371;BME280;16357;52.188;7.838;2023-12-20T01:14:24;100600.44;;;9.09;68.60
29371;BME280;16357;52.188;7.838;2023-12-20T01:16:50;100600.16;;;9.02;68.78
29371;BME280;16357;52.188;7.838;2023-12-20T01:19:17;100606.25;;;8.95;68.98
29371;BME280;16357;52.188;7.838;2023-12-20T01:21:43;100603.38;;;8.88;69.29
29371;BME280;16357;52.188;7.838;2023-12-20T01:24:10;100615.50;;;8.83;69.41
29371;BME280;16357;52.188;7.838;2023-12-20T01:26:37;100617.78;;;8.77;69.67
29371;BME280;16357;52.188;7.838;2023-12-20T01:29:03;100620.75;;;8.74;69.79
29371;BME280;16357;52.188;7.838;2023-12-20T01:31:29;100605.84;;;8.72;70.05
29371;BME280;16357;52.188;7.838;2023-12-20T01:33:56;100606.09;;;8.69;70.10
29371;BME280;16357;52.188;7.838;2023-12-20T01:36:23;100608.13;;;8.67;70.03
29371;BME280;16357;52.188;7.838;2023-12-20T01:38:49;100601.22;;;8.64;70.18
29371;BME280;16357;52.188;7.838;2023-12-20T01:41:15;100602.19;;;8.63;69.90
29371;BME280;16357;52.188;7.838;2023-12-20T01:43:42;100589.97;;;8.61;69.81
29371;BME280;16357;52.188;7.838;2023-12-20T01:46:17;100601.78;;;8.58;69.79
29371;BME280;16357;52.188;7.838;2023-12-20T01:48:44;100608.44;;;8.54;69.69
29371;BME280;16357;52.188;7.838;2023-12-20T01:51:10;100604.38;;;8.50;69.39
29371;BME280;16357;52.188;7.838;2023-12-20T01:53:39;100607.34;;;8.47;69.95
29371;BME280;16357;52.188;7.838;2023-12-20T01:56:08;100601.59;;;8.42;69.91
29371;BME280;16357;52.188;7.838;2023-12-20T01:58:39;100601.00;;;8.38;69.62
29371;BME280;16357;52.188;7.838;2023-12-20T02:01:10;100609.47;;;8.33;69.65
29371;BME280;16357;52.188;7.838;2023-12-20T02:03:36;100602.72;;;8.29;69.83
29371;BME280;16357;52.188;7.838;2023-12-20T02:06:04;100605.84;;;8.25;69.54
29371;BME280;16357;52.188;7.838;2023-12-20T02:08:31;100605.25;;;8.21;69.70
29371;BME280;16357;52.188;7.838;2023-12-20T02:10:58;100596.00;;;8.16;69.79
29371;BME280;16357;52.188;7.838;2023-12-20T02:13:24;100600.78;;;8.12;70.31
29371;BME280;16357;52.188;7.838;2023-12-20T02:15:54;100593.06;;;8.09;70.62
29371;BME280;16357;52.188;7.838;2023-12-20T02:18:21;100594.91;;;8.08;71.06
29371;BME280;16357;52.188;7.838;2023-12-20T02:20:48;100594.03;;;8.08;71.16
29371;BME280;16357;52.188;7.838;2023-12-20T02:23:14;100592.25;;;8.08;71.78
29371;BME280;16357;52.188;7.838;2023-12-20T02:25:41;100593.91;;;8.09;71.49
29371;BME280;16357;52.188;7.838;2023-12-20T02:28:08;100590.09;;;8.12;71.76
29371;BME280;16357;52.188;7.838;2023-12-20T02:30:34;100594.16;;;8.16;71.90
29371;BME280;16357;52.188;7.838;2023-12-20T02:33:01;100599.25;;;8.19;71.96
29371;BME280;16357;52.188;7.838;2023-12-20T02:35:30;100599.91;;;8.21;71.72
29371;BME280;16357;52.188;7.838;2023-12-20T02:37:56;100604.00;;;8.25;71.42
29371;BME280;16357;52.188;7.838;2023-12-20T02:40:22;100593.00;;;8.28;71.37
29371;BME280;16357;52.188;7.838;2023-12-20T02:42:49;100591.03;;;8.30;71.51
29371;BME280;16357;52.188;7.838;2023-12-20T02:45:15;100581.72;;;8.34;71.66
29371;BME280;16357;52.188;7.838;2023-12-20T02:47:42;100588.47;;;8.39;71.60
29371;BME280;16357;52.188;7.838;2023-12-20T02:50:09;100589.22;;;8.41;71.16
29371;BME280;16357;52.188;7.838;2023-12-20T02:52:35;100581.91;;;8.43;70.71
29371;BME280;16357;52.188;7.838;2023-12-20T02:55:02;100583.44;;;8.45;70.88
29371;BME280;16357;52.188;7.838;2023-12-20T02:57:28;100577.09;;;8.46;70.45
29371;BME280;16357;52.188;7.838;2023-12-20T02:59:55;100573.41;;;8.47;70.46
29371;BME280;16357;52.188;7.838;2023-12-20T03:02:21;100570.75;;;8.47;70.47
29371;BME280;16357;52.188;7.838;2023-12-20T03:04:48;100567.22;;;8.47;70.52
29371;BME280;16357;52.188;7.838;2023-12-20T03:07:14;100563.44;;;8.49;70.49
29371;BME280;16357;52.188;7.838;2023-12-20T03:09:41;100559.91;;;8.49;70.32
29371;BME280;16357;52.188;7.838;2023-12-20T03:12:27;100567.78;;;8.50;70.33
29371;BME280;16357;52.188;7.838;2023-12-20T03:14:53;100571.31;;;8.51;70.04
29371;BME280;16357;52.188;7.838;2023-12-20T03:17:20;100571.31;;;8.51;70.01
29371;BME280;16357;52.188;7.838;2023-12-20T03:19:47;100568.63;;;8.51;69.48
29371;BME280;16357;52.188;7.838;2023-12-20T03:22:13;100563.44;;;8.49;69.58
29371;BME280;16357;52.188;7.838;2023-12-20T03:24:40;100561.88;;;8.47;69.33
29371;BME280;16357;52.188;7.838;2023-12-20T03:27:06;100563.84;;;8.45;69.23
29371;BME280;16357;52.188;7.838;2023-12-20T03:29:33;100562.47;;;8.41;69.24
29371;BME280;16357;52.188;7.838;2023-12-20T03:31:59;100565.44;;;8.38;69.22
29371;BME280;16357;52.188;7.838;2023-12-20T03:34:26;100552.31;;;8.34;69.82
29371;BME280;16357;52.188;7.838;2023-12-20T03:36:53;100543.63;;;8.32;69.69
29371;BME280;16357;52.188;7.838;2023-12-20T03:39:19;100545.59;;;8.30;69.65
29371;BME280;16357;52.188;7.838;2023-12-20T03:41:46;100543.94;;;8.29;69.58
29371;BME280;16357;52.188;7.838;2023-12-20T03:44:12;100546.59;;;8.29;69.97
29371;BME280;16357;52.188;7.838;2023-12-20T03:46:39;100541.41;;;8.28;69.69
29371;BME280;16357;52.188;7.838;2023-12-20T03:49:05;100535.22;;;8.27;69.63
29371;BME280;16357;52.188;7.838;2023-12-20T03:51:31;100541.41;;;8.28;70.04
29371;BME280;16357;52.188;7.838;2023-12-20T03:53:58;100535.34;;;8.26;69.80
29371;BME280;16357;52.188;7.838;2023-12-20T03:56:24;100551.25;;;8.27;70.29
29371;BME280;16357;52.188;7.838;2023-12-20T03:58:51;100540.56;;;8.27;70.01
29371;BME280;16357;52.188;7.838;2023-12-20T04:01:17;100540.56;;;8.27;70.06
29371;BME280;16357;52.188;7.838;2023-12-20T04:03:44;100543.94;;;8.29;70.57
29371;BME280;16357;52.188;7.838;2023-12-20T04:06:16;100548.13;;;8.32;70.56
29371;BME280;16357;52.188;7.838;2023-12-20T04:08:43;100542.78;;;8.32;70.17
29371;BME280;16357;52.188;7.838;2023-12-20T04:11:09;100548.81;;;8.34;70.27
29371;BME280;16357;52.188;7.838;2023-12-20T04:13:36;100546.00;;;8.35;70.27
29371;BME280;16357;52.188;7.838;2023-12-20T04:16:03;100537.00;;;8.36;70.04
29371;BME280;16357;52.188;7.838;2023-12-20T04:18:29;100534.19;;;8.38;69.89
29371;BME280;16357;52.188;7.838;2023-12-20T04:20:56;100537.59;;;8.40;69.91
29371;BME280;16357;52.188;7.838;2023-12-20T04:23:22;100532.25;;;8.40;70.15
29371;BME280;16357;52.188;7.838;2023-12-20T04:25:49;100543.78;;;8.41;69.59
29371;BME280;16357;52.188;7.838;2023-12-20T04:28:15;100534.06;;;8.40;69.55
29371;BME280;16357;52.188;7.838;2023-12-20T04:30:42;100542.94;;;8.40;69.31
29371;BME280;16357;52.188;7.838;2023-12-20T04:33:08;100548.38;;;8.39;69.57
29371;BME280;16357;52.188;7.838;2023-12-20T04:35:35;100541.22;;;8.39;69.89
29371;BME280;16357;52.188;7.838;2023-12-20T04:38:02;100543.91;;;8.39;69.62
29371;BME280;16357;52.188;7.838;2023-12-20T04:40:28;100544.75;;;8.40;69.90
29371;BME280;16357;52.188;7.838;2023-12-20T04:42:55;100535.75;;;8.41;70.06
29371;BME280;16357;52.188;7.838;2023-12-20T04:45:21;100536.47;;;8.43;69.77
29371;BME280;16357;52.188;7.838;2023-12-20T04:47:48;100534.44;;;8.45;69.63
29371;BME280;16357;52.188;7.838;2023-12-20T04:50:15;100529.81;;;8.47;69.66
29371;BME280;16357;52.188;7.838;2023-12-20T04:52:42;100527.00;;;8.48;69.46
29371;BME280;16357;52.188;7.838;2023-12-20T04:55:08;100538.38;;;8.50;69.63
29371;BME280;16357;52.188;7.838;2023-12-20T04:57:35;100542.56;;;8.53;69.50
29371;BME280;16357;52.188;7.838;2023-12-20T05:00:01;100541.59;;;8.54;69.45
29371;BME280;16357;52.188;7.838;2023-12-20T05:02:29;100543.13;;;8.56;69.50
29371;BME280;16357;52.188;7.838;2023-12-20T05:04:55;100536.66;;;8.59;69.77
29371;BME280;16357;52.188;7.838;2023-12-20T05:07:22;100529.47;;;8.60;69.58
29371;BME280;16357;52.188;7.838;2023-12-20T05:09:48;100517.63;;;8.62;69.57
29371;BME280;16357;52.188;7.838;2023-12-20T05:12:15;100523.69;;;8.64;69.38
29371;BME280;16357;52.188;7.838;2023-12-20T05:14:41;100522.69;;;8.65;69.32
29371;BME280;16357;52.188;7.838;2023-12-20T05:17:08;100524.38;;;8.66;69.46
29371;BME280;16357;52.188;7.838;2023-12-20T05:19:34;100532.22;;;8.68;69.32
29371;BME280;16357;52.188;7.838;2023-12-20T05:22:02;100525.88;;;8.69;68.94
29371;BME280;16357;52.188;7.838;2023-12-20T05:24:28;100532.09;;;8.69;69.40
29371;BME280;16357;52.188;7.838;2023-12-20T05:26:55;100531.94;;;8.71;69.16
29371;BME280;16357;52.188;7.838;2023-12-20T05:29:21;100533.63;;;8.72;69.18
29371;BME280;16357;52.188;7.838;2023-12-20T05:31:48;100531.63;;;8.74;69.16
29371;BME280;16357;52.188;7.838;2023-12-20T05:34:14;100525.44;;;8.73;69.15
29371;BME280;16357;52.188;7.838;2023-12-20T05:36:41;100517.28;;;8.75;69.42
29371;BME280;16357;52.188;7.838;2023-12-20T05:39:07;100521.50;;;8.77;69.12
29371;BME280;16357;52.188;7.838;2023-12-20T05:41:34;100527.69;;;8.78;69.29
29371;BME280;16357;52.188;7.838;2023-12-20T05:44:00;100518.66;;;8.79;69.33
29371;BME280;16357;52.188;7.838;2023-12-20T05:46:27;100518.50;;;8.81;68.94
29371;BME280;16357;52.188;7.838;2023-12-20T05:48:53;100516.66;;;8.81;68.95
29371;BME280;16357;52.188;7.838;2023-12-20T05:51:20;100521.88;;;8.83;68.98
29371;BME280;16357;52.188;7.838;2023-12-20T05:53:46;100527.06;;;8.84;68.76
29371;BME280;16357;52.188;7.838;2023-12-20T05:56:13;100527.94;;;8.85;68.89
29371;BME280;16357;52.188;7.838;2023-12-20T05:58:39;100524.25;;;8.86;68.73
29371;BME280;16357;52.188;7.838;2023-12-20T06:01:06;100527.75;;;8.86;69.03
29371;BME280;16357;52.188;7.838;2023-12-20T06:03:35;100524.94;;;8.88;68.64
29371;BME280;16357;52.188;7.838;2023-12-20T06:06:08;100521.28;;;8.89;68.82
29371;BME280;16357;52.188;7.838;2023-12-20T06:08:42;100519.44;;;8.89;68.84
29371;BME280;16357;52.188;7.838;2023-12-20T06:11:09;100513.09;;;8.90;68.44
29371;BME280;16357;52.188;7.838;2023-12-20T06:13:36;100523.81;;;8.90;68.48
29371;BME280;16357;52.188;7.838;2023-12-20T06:16:05;100521.13;;;8.90;68.60
29371;BME280;16357;52.188;7.838;2023-12-20T06:18:31;100521.97;;;8.91;68.60
29371;BME280;16357;52.188;7.838;2023-12-20T06:20:58;100511.28;;;8.91;68.42
29371;BME280;16357;52.188;7.838;2023-12-20T06:23:24;100516.63;;;8.91;68.37
29371;BME280;16357;52.188;7.838;2023-12-20T06:25:51;100511.09;;;8.92;68.31
29371;BME280;16357;52.188;7.838;2023-12-20T06:28:17;100514.63;;;8.93;68.54
29371;BME280;16357;52.188;7.838;2023-12-20T06:30:43;100518.28;;;8.92;68.35
29371;BME280;16357;52.188;7.838;2023-12-20T06:33:10;100516.44;;;8.92;68.08
29371;BME280;16357;52.188;7.838;2023-12-20T06:35:38;100512.94;;;8.92;68.11
29371;BME280;16357;52.188;7.838;2023-12-20T06:38:04;100514.63;;;8.93;68.19
29371;BME280;16357;52.188;7.838;2023-12-20T06:40:30;100517.31;;;8.93;68.14
29371;BME280;16357;52.188;7.838;2023-12-20T06:42:57;100509.44;;;8.91;68.10
29371;BME280;16357;52.188;7.838;2023-12-20T06:45:37;100498.59;;;8.93;68.05
29371;BME280;16357;52.188;7.838;2023-12-20T06:48:04;100495.91;;;8.93;68.08
29371;BME280;16357;52.188;7.838;2023-12-20T06:50:30;100495.03;;;8.92;68.32
29371;BME280;16357;52.188;7.838;2023-12-20T06:52:57;100488.72;;;8.93;67.99
29371;BME280;16357;52.188;7.838;2023-12-20T06:55:23;100493.22;;;8.93;67.98
29371;BME280;16357;52.188;7.838;2023-12-20T06:57:50;100491.41;;;8.93;67.70
29371;BME280;16357;52.188;7.838;2023-12-20T07:00:17;100497.59;;;8.94;67.87
29371;BME280;16357;52.188;7.838;2023-12-20T07:02:44;100485.03;;;8.94;67.87
29371;BME280;16357;52.188;7.838;2023-12-20T07:05:10;100496.56;;;8.95;67.54
29371;BME280;16357;52.188;7.838;2023-12-20T07:07:36;100492.94;;;8.96;67.69
29371;BME280;16357;52.188;7.838;2023-12-20T07:10:03;100489.25;;;8.97;67.54
29371;BME280;16357;52.188;7.838;2023-12-20T07:12:30;100480.25;;;8.98;67.68
29371;BME280;16357;52.188;7.838;2023-12-20T07:14:56;100497.97;;;8.99;67.68
29371;BME280;16357;52.188;7.838;2023-12-20T07:17:23;100482.75;;;8.99;67.68
29371;BME280;16357;52.188;7.838;2023-12-20T07:19:49;100491.47;;;9.01;67.60
29371;BME280;16357;52.188;7.838;2023-12-20T07:22:16;100487.78;;;9.02;67.11
29371;BME280;16357;52.188;7.838;2023-12-20T07:24:43;100491.34;;;9.03;67.14
29371;BME280;16357;52.188;7.838;2023-12-20T07:27:09;100483.31;;;9.03;67.12
29371;BME280;16357;52.188;7.838;2023-12-20T07:29:35;100484.13;;;9.04;66.92
29371;BME280;16357;52.188;7.838;2023-12-20T07:32:02;100491.03;;;9.06;66.95
29371;BME280;16357;52.188;7.838;2023-12-20T07:34:28;100501.72;;;9.06;66.69
29371;BME280;16357;52.188;7.838;2023-12-20T07:36:55;100489.00;;;9.08;66.86
29371;BME280;16357;52.188;7.838;2023-12-20T07:39:21;100489.00;;;9.08;66.76
29371;BME280;16357;52.188;7.838;2023-12-20T07:41:48;100499.56;;;9.10;66.31
29371;BME280;16357;52.188;7.838;2023-12-20T07:44:14;100492.56;;;9.09;66.38
29371;BME280;16357;52.188;7.838;2023-12-20T07:46:42;100480.84;;;9.10;66.50
29371;BME280;16357;52.188;7.838;2023-12-20T07:49:08;100484.34;;;9.10;66.29
29371;BME280;16357;52.188;7.838;2023-12-20T07:51:36;100488.72;;;9.11;66.33
29371;BME280;16357;52.188;7.838;2023-12-20T07:54:03;100498.44;;;9.12;66.26
29371;BME280;16357;52.188;7.838;2023-12-20T07:56:31;100497.41;;;9.13;66.55
29371;BME280;16357;52.188;7.838;2023-12-20T07:58:57;100492.06;;;9.13;66.22
29371;BME280;16357;52.188;7.838;2023-12-20T08:01:26;100491.09;;;9.14;66.28
29371;BME280;16357;52.188;7.838;2023-12-20T08:03:52;100495.44;;;9.15;66.28
29371;BME280;16357;52.188;7.838;2023-12-20T08:06:19;100484.75;;;9.15;66.15
29371;BME280;16357;52.188;7.838;2023-12-20T08:08:46;100489.13;;;9.16;66.42
29371;BME280;16357;52.188;7.838;2023-12-20T08:11:24;100487.09;;;9.18;66.46
29371;BME280;16357;52.188;7.838;2023-12-20T08:13:50;100483.59;;;9.18;66.04
29371;BME280;16357;52.188;7.838;2023-12-20T08:16:17;100481.44;;;9.21;66.12
29371;BME280;16357;52.188;7.838;2023-12-20T08:18:44;100477.91;;;9.21;66.16
29371;BME280;16357;52.188;7.838;2023-12-20T08:21:10;100477.78;;;9.22;66.36
29371;BME280;16357;52.188;7.838;2023-12-20T08:23:37;100491.00;;;9.24;65.95
29371;BME280;16357;52.188;7.838;2023-12-20T08:26:07;100481.16;;;9.25;66.25
29371;BME280;16357;52.188;7.838;2023-12-20T08:28:34;100482.00;;;9.25;66.01
29371;BME280;16357;52.188;7.838;2023-12-20T08:31:01;100478.31;;;9.26;66.15
29371;BME280;16357;52.188;7.838;2023-12-20T08:33:27;100481.81;;;9.27;66.35
29371;BME280;16357;52.188;7.838;2023-12-20T08:35:54;100487.88;;;9.29;66.17
29371;BME280;16357;52.188;7.838;2023-12-20T08:38:20;100486.88;;;9.30;66.29
29371;BME280;16357;52.188;7.838;2023-12-20T08:40:47;100477.84;;;9.31;66.49
29371;BME280;16357;52.188;7.838;2023-12-20T08:43:14;100482.19;;;9.32;66.47
29371;BME280;16357;52.188;7.838;2023-12-20T08:45:41;100479.53;;;9.32;66.31
29371;BME280;16357;52.188;7.838;2023-12-20T08:48:07;100462.47;;;9.33;66.18
29371;BME280;16357;52.188;7.838;2023-12-20T08:50:35;100462.16;;;9.36;66.56
29371;BME280;16357;52.188;7.838;2023-12-20T08:53:03;100449.78;;;9.35;66.32
29371;BME280;16357;52.188;7.838;2023-12-20T08:55:29;100461.16;;;9.37;66.47
29371;BME280;16357;52.188;7.838;2023-12-20T08:57:57;100464.69;;;9.37;66.43
29371;BME280;16357;52.188;7.838;2023-12-20T09:00:24;100440.59;;;9.37;66.57
29371;BME280;16357;52.188;7.838;2023-12-20T09:02:54;100458.16;;;9.40;66.42
29371;BME280;16357;52.188;7.838;2023-12-20T09:05:21;100450.81;;;9.42;66.47
29371;BME280;16357;52.188;7.838;2023-12-20T09:07:47;100440.09;;;9.42;66.33
29371;BME280;16357;52.188;7.838;2023-12-20T09:10:14;100455.19;;;9.43;66.13
29371;BME280;16357;52.188;7.838;2023-12-20T09:12:44;100459.53;;;9.44;66.47
29371;BME280;16357;52.188;7.838;2023-12-20T09:15:13;100442.47;;;9.45;66.67
29371;BME280;16357;52.188;7.838;2023-12-20T09:17:40;100421.75;;;9.47;66.66
29371;BME280;16357;52.188;7.838;2023-12-20T09:20:08;100435.13;;;9.47;66.62
29371;BME280;16357;52.188;7.838;2023-12-20T09:22:35;100439.50;;;9.48;66.43
29371;BME280;16357;52.188;7.838;2023-12-20T09:25:02;100442.84;;;9.50;66.50
29371;BME280;16357;52.188;7.838;2023-12-20T09:27:29;100430.47;;;9.49;66.65
29371;BME280;16357;52.188;7.838;2023-12-20T09:29:55;100428.63;;;9.50;66.51
29371;BME280;16357;52.188;7.838;2023-12-20T09:32:22;100440.16;;;9.50;66.61
29371;BME280;16357;52.188;7.838;2023-12-20T09:34:48;100425.09;;;9.49;66.84
29371;BME280;16357;52.188;7.838;2023-12-20T09:37:15;100422.28;;;9.51;66.69
29371;BME280;16357;52.188;7.838;2023-12-20T09:39:42;100436.50;;;9.51;66.72
29371;BME280;16357;52.188;7.838;2023-12-20T09:42:11;100440.03;;;9.52;66.87
29371;BME280;16357;52.188;7.838;2023-12-20T09:44:38;100436.34;;;9.53;67.23
29371;BME280;16357;52.188;7.838;2023-12-20T09:47:11;100412.09;;;9.54;66.95
29371;BME280;16357;52.188;7.838;2023-12-20T09:49:38;100436.03;;;9.56;66.92
29371;BME280;16357;52.188;7.838;2023-12-20T09:52:04;100441.41;;;9.56;67.02
29371;BME280;16357;52.188;7.838;2023-12-20T09:54:33;100433.50;;;9.54;67.22
29371;BME280;16357;52.188;7.838;2023-12-20T09:56:59;100448.56;;;9.55;67.19
29371;BME280;16357;52.188;7.838;2023-12-20T09:59:26;100451.09;;;9.57;66.92
29371;BME280;16357;52.188;7.838;2023-12-20T10:01:55;100448.25;;;9.58;67.21
29371;BME280;16357;52.188;7.838;2023-12-20T10:04:24;100466.16;;;9.58;66.93
29371;BME280;16357;52.188;7.838;2023-12-20T10:06:56;100460.81;;;9.58;67.16
29371;BME280;16357;52.188;7.838;2023-12-20T10:09:23;100454.63;;;9.57;67.46
29371;BME280;16357;52.188;7.838;2023-12-20T10:11:54;100460.66;;;9.59;67.56
29371;BME280;16357;52.188;7.838;2023-12-20T10:14:21;100462.66;;;9.57;67.75
29371;BME280;16357;52.188;7.838;2023-12-20T10:16:49;100455.31;;;9.59;67.48
29371;BME280;16357;52.188;7.838;2023-12-20T10:19:17;100453.59;;;9.58;67.18
29371;BME280;16357;52.188;7.838;2023-12-20T10:21:44;100459.97;;;9.57;67.60
29371;BME280;16357;52.188;7.838;2023-12-20T10:24:17;100458.97;;;9.58;67.65
29371;BME280;16357;52.188;7.838;2023-12-20T10:26:44;100458.00;;;9.59;67.85
29371;BME280;16357;52.188;7.838;2023-12-20T10:29:10;100464.19;;;9.60;67.73
29371;BME280;16357;52.188;7.838;2023-12-20T10:31:37;100462.34;;;9.60;67.57
29371;BME280;16357;52.188;7.838;2023-12-20T10:34:05;100459.66;;;9.60;67.90
29371;BME280;16357;52.188;7.838;2023-12-20T10:36:33;100451.63;;;9.60;68.05
29371;BME280;16357;52.188;7.838;2023-12-20T10:38:59;100456.13;;;9.60;68.00
29371;BME280;16357;52.188;7.838;2023-12-20T10:41:29;100438.22;;;9.60;68.13
29371;BME280;16357;52.188;7.838;2023-12-20T10:43:58;100434.56;;;9.61;68.20
29371;BME280;16357;52.188;7.838;2023-12-20T10:46:29;100452.31;;;9.62;68.27
29371;BME280;16357;52.188;7.838;2023-12-20T10:48:57;100436.25;;;9.62;68.35
29371;BME280;16357;52.188;7.838;2023-12-20T10:51:24;100427.19;;;9.63;68.23
29371;BME280;16357;52.188;7.838;2023-12-20T10:53:53;100421.84;;;9.63;68.15
29371;BME280;16357;52.188;7.838;2023-12-20T10:56:20;100434.41;;;9.63;68.06
29371;BME280;16357;52.188;7.838;2023-12-20T10:58:48;100425.53;;;9.62;68.40
29371;BME280;16357;52.188;7.838;2023-12-20T11:01:17;100413.16;;;9.61;67.90
29371;BME280;16357;52.188;7.838;2023-12-20T11:03:52;100415.81;;;9.61;67.92
29371;BME280;16357;52.188;7.838;2023-12-20T11:09:24;100407.78;;;9.61;68.39
29371;BME280;16357;52.188;7.838;2023-12-20T11:14:31;100387.03;;;9.63;68.34
29371;BME280;16357;52.188;7.838;2023-12-20T11:17:10;100397.28;;;9.68;68.14
29371;BME280;16357;52.188;7.838;2023-12-20T11:22:20;100391.44;;;9.73;68.28
29371;BME280;16357;52.188;7.838;2023-12-20T11:24:48;100387.75;;;9.74;68.22
29371;BME280;16357;52.188;7.838;2023-12-20T11:27:14;100382.94;;;9.77;68.59
29371;BME280;16357;52.188;7.838;2023-12-20T11:29:41;100391.47;;;9.81;68.55
29371;BME280;16357;52.188;7.838;2023-12-20T11:32:28;100381.13;;;9.86;68.28
29371;BME280;16357;52.188;7.838;2023-12-20T11:34:56;100387.00;;;9.89;68.25
29371;BME280;16357;52.188;7.838;2023-12-20T11:37:51;100383.16;;;9.92;68.15
29371;BME280;16357;52.188;7.838;2023-12-20T11:40:18;100386.69;;;9.93;67.89
29371;BME280;16357;52.188;7.838;2023-12-20T11:42:46;100381.16;;;9.94;67.75
29371;BME280;16357;52.188;7.838;2023-12-20T11:45:17;100371.81;;;9.98;67.90
29371;BME280;16357;52.188;7.838;2023-12-20T11:47:46;100363.44;;;10.01;68.04
29371;BME280;16357;52.188;7.838;2023-12-20T11:50:14;100363.94;;;10.05;67.79
29371;BME280;16357;52.188;7.838;2023-12-20T11:52:41;100360.09;;;10.07;67.66
29371;BME280;16357;52.188;7.838;2023-12-20T11:55:07;100349.91;;;10.11;67.47
29371;BME280;16357;52.188;7.838;2023-12-20T11:57:34;100343.34;;;10.14;67.61
29371;BME280;16357;52.188;7.838;2023-12-20T12:00:00;100373.53;;;10.16;67.23
29371;BME280;16357;52.188;7.838;2023-12-20T12:02:27;100370.69;;;10.17;67.41
29371;BME280;16357;52.188;7.838;2023-12-20T12:04:53;100351.94;;;10.17;67.26
29371;BME280;16357;52.188;7.838;2023-12-20T12:07:20;100367.81;;;10.19;67.18
29371;BME280;16357;52.188;7.838;2023-12-20T12:09:46;100363.47;;;10.18;67.29
29371;BME280;16357;52.188;7.838;2023-12-20T12:12:13;100359.13;;;10.17;67.39
29371;BME280;16357;52.188;7.838;2023-12-20T12:14:40;100364.78;;;10.14;67.53
29371;BME280;16357;52.188;7.838;2023-12-20T12:17:13;100368.50;;;10.13;67.90
29371;BME280;16357;52.188;7.838;2023-12-20T12:19:41;100375.00;;;10.10;67.87
29371;BME280;16357;52.188;7.838;2023-12-20T12:22:09;100395.94;;;10.06;68.75
29371;BME280;16357;52.188;7.838;2023-12-20T12:24:43;100408.16;;;10.01;68.59
29371;BME280;16357;52.188;7.838;2023-12-20T12:27:12;100397.41;;;9.93;68.50
29371;BME280;16357;52.188;7.838;2023-12-20T12:29:39;100398.50;;;9.82;68.77
29371;BME280;16357;52.188;7.838;2023-12-20T12:32:07;100394.25;;;9.71;68.96
29371;BME280;16357;52.188;7.838;2023-12-20T12:34:35;100392.88;;;9.59;69.33
29371;BME280;16357;52.188;7.838;2023-12-20T12:37:03;100389.63;;;9.47;69.33
29371;BME280;16357;52.188;7.838;2023-12-20T12:39:30;100388.88;;;9.37;69.46
29371;BME280;16357;52.188;7.838;2023-12-20T12:41:57;100399.00;;;9.25;70.06
29371;BME280;16357;52.188;7.838;2023-12-20T12:44:23;100397.25;;;9.16;69.90
29371;BME280;16357;52.188;7.838;2023-12-20T12:46:51;100394.53;;;9.08;69.76
29371;BME280;16357;52.188;7.838;2023-12-20T12:49:20;100385.59;;;8.99;69.98
29371;BME280;16357;52.188;7.838;2023-12-20T12:51:51;100390.88;;;8.91;70.48
29371;BME280;16357;52.188;7.838;2023-12-20T12:54:17;100378.13;;;8.85;70.83
29371;BME280;16357;52.188;7.838;2023-12-20T12:56:44;100369.72;;;8.79;71.04
29371;BME280;16357;52.188;7.838;2023-12-20T12:59:11;100369.34;;;8.74;70.90
29371;BME280;16357;52.188;7.838;2023-12-20T13:01:38;100364.47;;;8.70;70.77
29371;BME280;16357;52.188;7.838;2023-12-20T13:04:05;100379.97;;;8.66;70.86
29371;BME280;16357;52.188;7.838;2023-12-20T13:06:37;100370.44;;;8.64;71.13
29371;BME280;16357;52.188;7.838;2023-12-20T13:09:04;100360.72;;;8.63;71.20